Time;durP1;ratioP1;P1;durP2;ratioP2;P2;SDS_P1;SDS_P2;PMS_P1;PMS_P2;Temp;Humidity;BMP_temperature;BMP_pressure;BME280_temperature;BME280_humidity;BME280_pressure;Samples;Min_cycle;Max_cycle;Signal;HPM_P1;HPM_P2
2021/07/10 00:01:56;;;;;;;4.22;3.83;;;22.80;71.90;;;;;;5109433;28;20047;-37
2021/07/10 00:04:22;;;;;;;4.53;3.60;;;22.80;71.90;;;;;;5112367;28;20056;-39
2021/07/10 00:06:48;;;;;;;3.22;2.92;;;22.70;71.90;;;;;;5112282;28;20120;-37
2021/07/10 00:09:14;;;;;;;4.50;3.65;;;22.80;71.90;;;;;;5111193;28;20429;-37
2021/07/10 00:11:40;;;;;;;4.20;3.60;;;22.80;71.90;;;;;;5110467;28;20488;-45
2021/07/10 00:14:06;;;;;;;4.70;3.58;;;22.70;71.90;;;;;;5112274;28;20071;-42
2021/07/10 00:16:32;;;;;;;4.10;3.70;;;22.80;71.90;;;;;;5111038;28;20043;-39
2021/07/10 00:18:58;;;;;;;3.70;3.28;;;22.80;71.90;;;;;;5112116;28;20040;-42
2021/07/10 00:21:24;;;;;;;4.28;3.88;;;22.80;72.00;;;;;;5112060;28;20047;-41
2021/07/10 00:23:50;;;;;;;4.13;3.72;;;22.80;72.00;;;;;;5109704;28;20067;-38
2021/07/10 00:26:16;;;;;;;3.78;3.20;;;22.80;72.10;;;;;;5111414;28;20488;-39
2021/07/10 00:28:42;;;;;;;3.83;3.42;;;22.70;71.90;;;;;;5112470;28;20051;-39
2021/07/10 00:31:08;;;;;;;3.90;3.50;;;22.70;71.90;;;;;;5110951;28;20564;-41
2021/07/10 00:33:34;;;;;;;4.75;3.97;;;22.70;71.90;;;;;;5110285;28;20130;-38
2021/07/10 00:35:59;;;;;;;4.75;4.30;;;22.70;72.00;;;;;;5111817;28;20065;-40
2021/07/10 00:38:25;;;;;;;5.20;3.85;;;22.70;72.00;;;;;;5110795;28;20075;-42
2021/07/10 00:40:51;;;;;;;4.70;4.18;;;22.70;71.90;;;;;;5110029;28;20048;-35
2021/07/10 00:43:16;;;;;;;4.07;3.70;;;22.70;72.00;;;;;;5109590;28;20555;-38
2021/07/10 00:45:42;;;;;;;4.43;3.72;;;22.70;72.00;;;;;;5093861;28;20516;-41
2021/07/10 00:48:08;;;;;;;5.80;4.13;;;22.70;72.00;;;;;;5095303;28;20051;-43
2021/07/10 00:50:34;;;;;;;4.82;3.90;;;22.70;72.00;;;;;;5095203;28;20384;-37
2021/07/10 00:52:59;;;;;;;4.28;3.88;;;22.70;72.70;;;;;;5093198;28;20078;-39
2021/07/10 00:55:26;;;;;;;4.53;4.03;;;22.70;72.00;;;;;;5094972;28;20052;-44
2021/07/10 00:57:54;;;;;;;4.50;4.10;;;22.70;72.00;;;;;;5114298;28;20051;-36
2021/07/10 01:00:22;;;;;;;5.32;3.80;;;22.60;72.00;;;;;;5115381;28;20122;-41
2021/07/10 01:02:49;;;;;;;5.28;4.53;;;22.70;72.00;;;;;;5115904;28;20477;-41
2021/07/10 01:05:18;;;;;;;4.38;3.63;;;22.70;72.10;;;;;;5113808;28;20126;-42
2021/07/10 01:07:44;;;;;;;4.68;4.18;;;22.70;72.10;;;;;;5115362;28;20077;-38
2021/07/10 01:10:11;;;;;;;4.50;4.10;;;22.70;72.10;;;;;;5115749;28;20070;-40
2021/07/10 01:12:42;;;;;;;4.63;4.13;;;22.70;72.10;;;;;;5114996;28;20507;-36
2021/07/10 01:15:10;;;;;;;5.10;4.20;;;22.70;72.10;;;;;;5113850;28;20036;-37
2021/07/10 01:17:37;;;;;;;5.45;4.03;;;22.60;72.10;;;;;;5115387;28;20083;-41
2021/07/10 01:20:10;;;;;;;5.63;4.43;;;22.60;72.10;;;;;;5115522;28;20055;-38
2021/07/10 01:22:37;;;;;;;4.97;4.40;;;22.60;72.20;;;;;;5115198;28;20399;-38
2021/07/10 01:25:04;;;;;;;5.13;4.28;;;22.60;72.10;;;;;;5115871;28;20058;-40
2021/07/10 01:27:30;;;;;;;6.07;4.82;;;22.60;72.20;;;;;;5113048;28;20043;-42
2021/07/10 01:29:57;;;;;;;5.13;4.10;;;22.60;72.10;;;;;;5115617;28;20070;-41
2021/07/10 01:32:24;;;;;;;5.30;3.90;;;22.70;72.20;;;;;;5115147;28;20055;-44
2021/07/10 01:34:50;;;;;;;5.00;4.30;;;22.60;72.10;;;;;;5115471;28;20097;-42
2021/07/10 01:37:17;;;;;;;5.93;4.90;;;22.60;72.10;;;;;;5113612;28;20040;-44
2021/07/10 01:39:43;;;;;;;5.13;4.57;;;22.60;72.80;;;;;;5114214;28;20048;-42
2021/07/10 01:42:12;;;;;;;5.43;4.40;;;22.60;72.20;;;;;;5115282;28;20104;-38
2021/07/10 01:44:39;;;;;;;4.80;4.32;;;22.60;72.10;;;;;;5114701;28;20138;-38
2021/07/10 01:47:05;;;;;;;5.57;4.25;;;22.60;72.10;;;;;;5112718;28;20056;-43
2021/07/10 01:49:32;;;;;;;4.70;4.20;;;22.60;72.10;;;;;;5114582;28;20506;-46
2021/07/10 01:51:58;;;;;;;5.85;4.20;;;22.60;72.20;;;;;;5115143;28;20044;-43
2021/07/10 01:54:24;;;;;;;4.47;3.92;;;22.50;72.10;;;;;;5114153;28;20050;-44
2021/07/10 01:56:51;;;;;;;5.28;4.40;;;22.60;72.20;;;;;;5111884;28;20054;-43
2021/07/10 01:59:18;;;;;;;6.78;5.00;;;22.50;72.10;;;;;;5093191;28;20075;-47
2021/07/10 02:01:50;;;;;;;5.35;4.45;;;22.60;72.20;;;;;;5093496;28;20446;-43
2021/07/10 02:04:19;;;;;;;4.82;4.03;;;22.60;72.20;;;;;;5094244;28;20052;-40
2021/07/10 02:06:46;;;;;;;4.68;3.92;;;22.60;72.20;;;;;;5095369;28;20147;-44
2021/07/10 02:09:13;;;;;;;5.50;4.38;;;22.60;72.20;;;;;;5093244;28;20073;-39
2021/07/10 02:11:44;;;;;;;4.55;3.95;;;22.60;72.20;;;;;;5094040;28;20048;-41
2021/07/10 02:14:09;;;;;;;6.50;4.90;;;22.60;72.20;;;;;;5093708;28;20123;-43
2021/07/10 02:16:35;;;;;;;4.75;4.35;;;22.60;72.20;;;;;;5076673;28;20400;-39
2021/07/10 02:19:01;;;;;;;4.43;3.83;;;22.60;72.20;;;;;;5094141;28;20052;-45
2021/07/10 02:21:27;;;;;;;5.63;4.03;;;22.60;72.20;;;;;;5075268;28;20135;-39
2021/07/10 02:23:53;;;;;;;4.63;4.10;;;22.60;72.20;;;;;;5093618;28;20072;-44
2021/07/10 02:26:19;;;;;;;4.57;3.88;;;22.60;72.20;;;;;;5094068;28;20044;-40
2021/07/10 02:28:45;;;;;;;4.53;4.00;;;22.50;72.20;;;;;;5095163;28;20444;-44
2021/07/10 02:31:12;;;;;;;4.50;4.05;;;22.60;72.30;;;;;;5092138;28;20135;-42
2021/07/10 02:33:38;;;;;;;4.28;3.88;;;22.60;72.20;;;;;;5093339;28;20052;-38
2021/07/10 02:36:04;;;;;;;4.32;3.60;;;22.50;72.20;;;;;;5093705;28;20048;-45
2021/07/10 02:38:30;;;;;;;4.85;4.18;;;22.60;72.20;;;;;;5094178;28;20047;-43
2021/07/10 02:40:56;;;;;;;4.45;3.83;;;22.50;72.20;;;;;;5092997;28;20117;-44
2021/07/10 02:43:22;;;;;;;4.18;3.65;;;22.60;72.30;;;;;;5093370;28;20044;-41
2021/07/10 02:45:47;;;;;;;3.53;3.05;;;22.50;72.20;;;;;;5092351;28;20415;-44
2021/07/10 02:48:14;;;;;;;3.63;3.33;;;22.50;72.20;;;;;;5093407;28;20059;-38
2021/07/10 02:50:41;;;;;;;4.72;3.58;;;22.50;72.20;;;;;;5092898;28;20044;-38
2021/07/10 02:53:07;;;;;;;4.47;3.80;;;22.60;72.30;;;;;;5090750;28;20051;-45
2021/07/10 02:55:34;;;;;;;4.13;3.65;;;22.50;72.20;;;;;;5092277;28;20047;-41
2021/07/10 02:57:59;;;;;;;4.18;3.75;;;22.50;72.30;;;;;;5092267;28;20052;-45
2021/07/10 03:00:28;;;;;;;4.03;3.65;;;22.50;72.30;;;;;;5092027;28;20051;-45
2021/07/10 03:02:55;;;;;;;4.30;3.55;;;22.50;72.30;;;;;;5109601;28;20043;-40
2021/07/10 03:05:21;;;;;;;4.05;3.65;;;22.50;72.30;;;;;;5111875;28;20068;-43
2021/07/10 03:07:47;;;;;;;4.47;3.83;;;22.50;72.30;;;;;;5111978;28;20110;-44
2021/07/10 03:10:16;;;;;;;3.90;3.50;;;22.50;72.30;;;;;;5110743;28;20637;-39
2021/07/10 03:12:41;;;;;;;4.78;4.00;;;22.50;72.30;;;;;;5112346;28;20070;-44
2021/07/10 03:15:10;;;;;;;3.72;3.35;;;22.50;72.30;;;;;;5112130;28;20472;-41
2021/07/10 03:17:36;;;;;;;4.30;3.90;;;22.50;72.30;;;;;;5112053;28;20384;-40
2021/07/10 03:20:05;;;;;;;3.85;3.45;;;22.50;72.30;;;;;;5111970;28;20058;-38
2021/07/10 03:22:31;;;;;;;4.78;3.67;;;22.50;72.30;;;;;;5110459;28;20047;-46
2021/07/10 03:24:57;;;;;;;4.25;3.50;;;22.50;72.30;;;;;;5113324;28;20040;-46
2021/07/10 03:27:22;;;;;;;4.22;3.78;;;22.50;72.30;;;;;;5113394;28;20043;-43
2021/07/10 03:29:49;;;;;;;3.88;3.30;;;22.50;72.30;;;;;;5112854;28;20078;-43
2021/07/10 03:32:14;;;;;;;4.45;3.65;;;22.50;72.30;;;;;;5102527;28;20492;-43
2021/07/10 03:34:40;;;;;;;4.50;3.60;;;22.50;72.40;;;;;;5092839;28;20079;-40
2021/07/10 03:37:06;;;;;;;4.40;4.00;;;22.50;72.40;;;;;;5092403;28;20050;-43
2021/07/10 03:39:31;;;;;;;4.25;3.85;;;22.50;72.30;;;;;;5092870;28;20109;-47
2021/07/10 03:41:57;;;;;;;3.97;3.67;;;22.50;72.40;;;;;;5093419;28;20444;-43
2021/07/10 03:44:23;;;;;;;4.97;3.72;;;22.50;72.40;;;;;;5092369;28;20392;-42
2021/07/10 03:46:48;;;;;;;3.92;3.53;;;22.50;72.40;;;;;;5092655;28;20473;-45
2021/07/10 03:49:14;;;;;;;3.88;3.47;;;22.50;72.40;;;;;;5091962;28;20047;-44
2021/07/10 03:51:40;;;;;;;4.35;3.50;;;22.50;72.40;;;;;;5092247;28;20128;-43
2021/07/10 03:54:06;;;;;;;4.05;3.65;;;22.50;72.40;;;;;;5102319;28;20100;-40
2021/07/10 03:56:32;;;;;;;4.07;3.40;;;22.50;72.40;;;;;;5112134;28;20445;-40
2021/07/10 03:58:58;;;;;;;3.30;3.00;;;22.50;72.40;;;;;;5111892;28;20135;-39
2021/07/10 04:01:23;;;;;;;3.28;2.97;;;22.50;72.40;;;;;;5112376;28;20036;-40
2021/07/10 04:03:49;;;;;;;3.97;3.58;;;22.50;72.50;;;;;;5110046;28;20145;-42
2021/07/10 04:06:15;;;;;;;4.47;3.70;;;22.40;72.40;;;;;;5107735;28;20469;-40
2021/07/10 04:08:40;;;;;;;4.72;3.67;;;22.40;72.40;;;;;;5092367;28;20044;-38
2021/07/10 04:11:07;;;;;;;3.40;3.10;;;22.40;72.40;;;;;;5092060;28;20048;-40
2021/07/10 04:13:33;;;;;;;3.97;3.50;;;22.40;72.40;;;;;;5092389;28;20052;-42
2021/07/10 04:16:00;;;;;;;3.63;3.08;;;22.40;72.50;;;;;;5092265;28;20380;-40
2021/07/10 04:18:27;;;;;;;4.10;3.70;;;22.40;72.40;;;;;;5092061;28;20439;-41
2021/07/10 04:20:53;;;;;;;4.32;3.70;;;22.40;73.10;;;;;;5094590;28;20060;-42
2021/07/10 04:23:20;;;;;;;4.78;3.95;;;22.40;72.50;;;;;;5096173;28;20044;-43
2021/07/10 04:25:46;;;;;;;4.88;3.97;;;22.40;72.50;;;;;;5097427;28;20500;-43
2021/07/10 04:28:12;;;;;;;4.22;3.50;;;22.40;72.40;;;;;;5095880;28;20070;-44
2021/07/10 04:30:39;;;;;;;4.03;3.40;;;22.40;72.50;;;;;;5096130;28;20075;-48
2021/07/10 04:33:05;;;;;;;4.05;3.30;;;22.40;72.50;;;;;;5095929;28;20412;-41
2021/07/10 04:35:31;;;;;;;4.72;3.90;;;22.40;72.50;;;;;;5095844;28;20048;-42
2021/07/10 04:37:56;;;;;;;4.22;3.60;;;22.40;72.50;;;;;;5096305;28;20141;-42
2021/07/10 04:40:22;;;;;;;3.92;3.53;;;22.40;72.50;;;;;;5096080;28;20047;-42
2021/07/10 04:42:48;;;;;;;4.78;3.33;;;22.40;72.50;;;;;;5095247;28;20062;-42
2021/07/10 04:45:14;;;;;;;4.70;4.07;;;22.40;72.50;;;;;;5095405;28;20044;-43
2021/07/10 04:47:41;;;;;;;4.00;3.45;;;22.40;72.50;;;;;;5097187;28;20044;-41
2021/07/10 04:50:08;;;;;;;4.68;4.18;;;22.40;72.50;;;;;;5094909;28;20101;-47
2021/07/10 04:52:34;;;;;;;4.85;3.30;;;22.40;72.50;;;;;;5095698;28;20052;-42
2021/07/10 04:54:59;;;;;;;4.13;3.45;;;22.40;72.50;;;;;;5095643;28;20089;-44
2021/07/10 04:57:25;;;;;;;4.28;3.50;;;22.40;72.50;;;;;;5096156;28;20048;-42
2021/07/10 04:59:51;;;;;;;4.55;3.53;;;22.40;72.50;;;;;;5095558;28;20047;-41
2021/07/10 05:02:17;;;;;;;4.13;3.72;;;22.40;72.50;;;;;;5095278;28;20096;-41
2021/07/10 05:04:42;;;;;;;4.07;3.65;;;22.40;72.50;;;;;;5094571;28;20104;-41
2021/07/10 05:07:08;;;;;;;4.63;3.83;;;22.40;72.50;;;;;;5096146;28;20491;-40
2021/07/10 05:09:34;;;;;;;4.45;3.97;;;22.40;72.50;;;;;;5095380;28;20504;-42
2021/07/10 05:12:01;;;;;;;3.85;3.33;;;22.40;72.60;;;;;;5094125;28;20378;-42
2021/07/10 05:14:27;;;;;;;4.47;3.72;;;22.40;72.50;;;;;;5095275;28;20051;-40
2021/07/10 05:16:53;;;;;;;4.30;3.33;;;22.40;72.60;;;;;;5094913;28;20127;-43
2021/07/10 05:19:19;;;;;;;3.88;3.47;;;22.40;72.60;;;;;;5096041;28;20055;-41
2021/07/10 05:21:45;;;;;;;4.60;3.90;;;22.40;72.50;;;;;;5094295;28;20044;-42
2021/07/10 05:24:10;;;;;;;4.25;3.42;;;22.30;72.50;;;;;;5095014;28;20052;-40
2021/07/10 05:26:36;;;;;;;4.40;3.88;;;22.30;72.50;;;;;;5093509;28;20413;-40
2021/07/10 05:29:05;;;;;;;5.35;3.92;;;22.40;72.60;;;;;;5095518;28;20113;-41
2021/07/10 05:31:31;;;;;;;4.28;3.88;;;22.40;72.60;;;;;;5094314;28;20075;-38
2021/07/10 05:33:57;;;;;;;3.85;3.28;;;22.40;72.60;;;;;;5076778;28;20489;-40
2021/07/10 05:36:23;;;;;;;3.42;3.10;;;22.30;72.60;;;;;;5093539;28;20134;-43
2021/07/10 05:38:48;;;;;;;5.80;4.05;;;22.40;72.60;;;;;;5095260;28;20129;-43
2021/07/10 05:41:14;;;;;;;4.13;3.63;;;22.40;72.60;;;;;;5094498;28;20508;-42
2021/07/10 05:43:40;;;;;;;4.50;3.78;;;22.40;72.60;;;;;;5094099;28;20451;-41
2021/07/10 05:46:05;;;;;;;4.22;3.53;;;22.30;72.60;;;;;;5094587;28;20530;-44
2021/07/10 05:48:31;;;;;;;4.65;3.15;;;22.40;72.60;;;;;;5095551;28;20051;-42
2021/07/10 05:50:57;;;;;;;4.30;3.15;;;22.40;72.60;;;;;;5097935;28;20044;-42
2021/07/10 05:53:22;;;;;;;4.03;3.60;;;22.30;72.60;;;;;;5093935;28;20263;-40
2021/07/10 05:55:48;;;;;;;3.65;3.28;;;22.30;72.60;;;;;;5094719;28;20495;-42
2021/07/10 05:58:15;;;;;;;4.35;3.65;;;22.40;72.60;;;;;;5093130;28;20112;-42
2021/07/10 06:00:41;;;;;;;3.92;3.42;;;22.30;72.60;;;;;;5095340;28;20384;-41
2021/07/10 06:03:07;;;;;;;4.28;3.58;;;22.40;72.60;;;;;;5094541;28;20044;-38
2021/07/10 06:05:33;;;;;;;3.95;3.30;;;22.40;72.70;;;;;;5093420;28;20416;-43
2021/07/10 06:07:59;;;;;;;4.15;3.40;;;22.30;72.70;;;;;;5093738;28;20048;-43
2021/07/10 06:10:24;;;;;;;3.80;3.30;;;22.30;72.60;;;;;;5093774;28;20055;-38
2021/07/10 06:12:51;;;;;;;3.90;3.30;;;22.40;72.70;;;;;;5112319;28;20046;-39
2021/07/10 06:15:17;;;;;;;3.50;3.20;;;22.30;72.60;;;;;;5098299;28;20052;-37
2021/07/10 06:17:44;;;;;;;4.20;3.30;;;22.30;72.60;;;;;;5103028;28;20047;-39
2021/07/10 06:20:12;;;;;;;3.45;3.08;;;22.30;72.60;;;;;;5113221;28;20484;-37
2021/07/10 06:22:39;;;;;;;4.25;3.05;;;22.30;72.60;;;;;;5100785;28;20586;-40
2021/07/10 06:25:07;;;;;;;4.00;2.70;;;22.30;72.70;;;;;;5093521;28;20044;-43
2021/07/10 06:27:33;;;;;;;4.82;3.00;;;22.40;72.70;;;;;;5092559;28;20484;-40
2021/07/10 06:29:58;;;;;;;3.40;3.10;;;22.30;72.60;;;;;;5093841;28;20056;-42
2021/07/10 06:32:25;;;;;;;3.17;2.78;;;22.30;72.60;;;;;;5094430;28;20056;-39
2021/07/10 06:34:51;;;;;;;3.15;2.85;;;22.30;72.60;;;;;;5093278;28;20044;-41
2021/07/10 06:37:17;;;;;;;3.72;3.28;;;22.30;72.60;;;;;;5100874;28;20046;-37
2021/07/10 06:39:43;;;;;;;5.45;3.25;;;22.30;72.60;;;;;;5093005;28;20052;-40
2021/07/10 06:42:09;;;;;;;2.90;2.60;;;22.40;72.70;;;;;;5091196;28;20123;-41
2021/07/10 06:44:35;;;;;;;3.70;3.15;;;22.40;72.70;;;;;;5107749;28;20134;-40
2021/07/10 06:47:01;;;;;;;2.97;2.67;;;22.40;72.70;;;;;;5111808;28;20074;-41
2021/07/10 06:49:26;;;;;;;3.33;2.78;;;22.40;72.90;;;;;;5112072;28;20067;-43
2021/07/10 06:51:52;;;;;;;3.03;2.70;;;22.40;72.70;;;;;;5113176;28;20047;-44
2021/07/10 06:54:18;;;;;;;3.05;2.72;;;22.40;72.70;;;;;;5112648;28;20047;-44
2021/07/10 06:56:43;;;;;;;2.95;2.65;;;22.40;72.70;;;;;;5094486;28;20048;-41
2021/07/10 06:59:18;;;;;;;3.33;2.80;;;22.40;72.70;;;;;;5092779;28;20084;-42
2021/07/10 07:01:46;;;;;;;3.25;2.80;;;22.40;72.70;;;;;;5092802;28;20083;-41
2021/07/10 07:04:12;;;;;;;3.28;2.72;;;22.40;72.70;;;;;;5092995;28;20488;-45
2021/07/10 07:06:38;;;;;;;3.30;3.00;;;22.40;72.60;;;;;;5092694;28;20044;-39
2021/07/10 07:09:04;;;;;;;3.05;2.60;;;22.40;72.60;;;;;;5092375;28;20051;-41
2021/07/10 07:11:30;;;;;;;2.88;2.58;;;22.40;72.60;;;;;;5091821;28;20044;-42
2021/07/10 07:13:56;;;;;;;3.55;3.10;;;22.40;72.60;;;;;;5092746;28;20115;-43
2021/07/10 07:16:21;;;;;;;2.70;2.50;;;22.40;72.60;;;;;;5093801;28;20127;-44
2021/07/10 07:18:47;;;;;;;2.92;2.63;;;22.40;72.60;;;;;;5091614;28;20052;-44
2021/07/10 07:21:13;;;;;;;3.25;2.67;;;22.40;72.60;;;;;;5091300;28;20140;-43
2021/07/10 07:23:39;;;;;;;2.97;2.58;;;22.40;72.60;;;;;;5091500;28;20485;-45
2021/07/10 07:26:04;;;;;;;3.13;2.83;;;22.40;72.50;;;;;;5101644;28;20468;-43
2021/07/10 07:28:30;;;;;;;2.38;2.17;;;22.40;72.50;;;;;;5104298;28;20048;-46
2021/07/10 07:30:56;;;;;;;2.45;2.25;;;22.40;72.50;;;;;;5100305;28;20055;-41
2021/07/10 07:33:24;;;;;;;2.40;2.20;;;22.40;72.50;;;;;;5105886;28;20052;-43
2021/07/10 07:35:49;;;;;;;2.53;2.33;;;22.40;72.50;;;;;;5099420;28;20115;-43
2021/07/10 07:38:15;;;;;;;2.92;2.53;;;22.50;72.50;;;;;;5110917;28;20607;-43
2021/07/10 07:40:41;;;;;;;2.50;2.30;;;22.50;72.50;;;;;;5110091;28;20123;-44
2021/07/10 07:43:07;;;;;;;2.40;2.20;;;22.50;72.40;;;;;;5110787;28;20126;-43
2021/07/10 07:45:33;;;;;;;2.72;2.40;;;22.40;72.40;;;;;;5103218;28;20517;-40
2021/07/10 07:47:58;;;;;;;2.38;2.17;;;22.50;72.40;;;;;;5109838;28;20116;-37
2021/07/10 07:50:24;;;;;;;2.97;2.47;;;22.50;72.30;;;;;;5111717;28;20043;-41
2021/07/10 07:52:50;;;;;;;2.70;2.35;;;22.50;72.30;;;;;;5111753;28;20067;-41
2021/07/10 07:55:17;;;;;;;2.63;2.40;;;22.50;72.30;;;;;;5110580;28;20047;-40
2021/07/10 07:57:43;;;;;;;2.65;2.45;;;22.50;72.30;;;;;;5103140;28;20081;-39
2021/07/10 08:00:13;;;;;;;2.17;1.95;;;22.50;72.20;;;;;;5091313;28;20096;-40
2021/07/10 08:02:40;;;;;;;2.58;2.38;;;22.50;72.20;;;;;;5106709;28;20398;-39
2021/07/10 08:05:06;;;;;;;2.60;2.40;;;22.50;72.20;;;;;;5091451;28;20093;-43
2021/07/10 08:07:32;;;;;;;3.35;2.95;;;22.50;72.20;;;;;;5091370;28;20048;-44
2021/07/10 08:09:58;;;;;;;2.60;2.30;;;22.50;72.10;;;;;;5090677;28;20051;-40
2021/07/10 08:12:23;;;;;;;3.42;3.13;;;22.50;72.00;;;;;;5091465;28;20040;-38
2021/07/10 08:14:49;;;;;;;2.72;2.28;;;22.50;72.00;;;;;;5092442;28;20488;-41
2021/07/10 08:17:15;;;;;;;2.63;2.42;;;22.50;71.90;;;;;;5090547;28;20127;-44
2021/07/10 08:19:41;;;;;;;2.50;2.08;;;22.50;71.90;;;;;;5090475;28;20044;-45
2021/07/10 08:22:06;;;;;;;2.50;2.30;;;22.60;72.00;;;;;;5090152;28;20043;-44
2021/07/10 08:24:32;;;;;;;2.17;1.98;;;22.60;71.90;;;;;;5090708;28;20467;-41
2021/07/10 08:26:57;;;;;;;2.45;2.25;;;22.50;71.80;;;;;;5090525;28;20055;-42
2021/07/10 08:29:24;;;;;;;2.20;2.00;;;22.60;71.90;;;;;;5090401;28;20090;-36
2021/07/10 08:31:51;;;;;;;2.72;2.28;;;22.60;71.80;;;;;;5089657;28;20044;-40
2021/07/10 08:34:17;;;;;;;2.60;2.10;;;22.60;71.80;;;;;;5090020;28;20063;-38
2021/07/10 08:36:43;;;;;;;2.80;2.20;;;22.60;71.80;;;;;;5109415;28;20043;-43
2021/07/10 08:39:08;;;;;;;3.08;2.53;;;22.60;71.80;;;;;;5110147;28;20059;-40
2021/07/10 08:41:35;;;;;;;3.00;2.38;;;22.60;71.70;;;;;;5109743;28;20047;-39
2021/07/10 08:44:02;;;;;;;2.35;2.15;;;22.60;71.70;;;;;;5110732;28;20044;-41
2021/07/10 08:46:28;;;;;;;2.42;2.08;;;22.60;71.70;;;;;;5108469;28;20107;-37
2021/07/10 08:48:55;;;;;;;3.30;2.65;;;22.60;71.70;;;;;;5109722;28;20109;-42
2021/07/10 08:51:21;;;;;;;3.15;2.63;;;22.60;71.70;;;;;;5111726;28;20123;-37
2021/07/10 08:53:47;;;;;;;3.10;2.70;;;22.60;71.60;;;;;;5111257;28;20040;-39
2021/07/10 08:56:13;;;;;;;2.65;2.42;;;22.70;71.70;;;;;;5109364;28;20104;-39
2021/07/10 08:58:39;;;;;;;2.42;2.13;;;22.70;71.70;;;;;;5111625;28;20039;-37
2021/07/10 09:01:07;;;;;;;2.40;2.17;;;22.70;71.70;;;;;;5111252;28;20127;-43
2021/07/10 09:03:33;;;;;;;2.72;1.90;;;22.70;71.60;;;;;;5110277;28;20044;-41
2021/07/10 09:05:59;;;;;;;2.40;2.20;;;22.70;71.70;;;;;;5113115;28;20048;-42
2021/07/10 09:08:27;;;;;;;2.17;1.98;;;22.70;71.60;;;;;;5113310;28;20043;-42
2021/07/10 09:11:14;;;;;;;2.30;2.10;;;22.70;71.60;;;;;;5114756;28;20047;-42
2021/07/10 09:13:47;;;;;;;2.47;1.90;;;22.70;71.50;;;;;;5115414;28;20183;-40
2021/07/10 09:16:14;;;;;;;2.20;2.00;;;22.70;71.60;;;;;;5114339;28;20513;-37
2021/07/10 09:18:44;;;;;;;2.20;2.00;;;22.70;71.60;;;;;;5113916;28;20055;-39
2021/07/10 09:21:12;;;;;;;2.05;1.85;;;22.70;71.60;;;;;;5114514;28;20046;-40
2021/07/10 09:23:42;;;;;;;2.10;1.90;;;22.70;71.60;;;;;;5097938;28;20071;-40
2021/07/10 09:26:12;;;;;;;1.95;1.75;;;22.80;71.70;;;;;;5110918;28;20123;-41
2021/07/10 09:28:38;;;;;;;1.85;1.67;;;22.80;71.70;;;;;;5094694;28;20565;-40
2021/07/10 09:31:33;;;;;;;2.10;1.90;;;22.80;71.60;;;;;;5094280;28;20052;-41
2021/07/10 09:34:15;;;;;;;2.50;2.30;;;22.80;71.60;;;;;;5059824;28;20436;-42
2021/07/10 09:36:54;;;;;;;2.20;2.00;;;22.80;71.70;;;;;;5106179;28;20074;-40
2021/07/10 09:39:21;;;;;;;1.83;1.70;;;22.80;71.70;;;;;;5113978;28;20035;-41
2021/07/10 09:41:47;;;;;;;2.03;1.83;;;22.80;71.70;;;;;;5114509;28;20071;-46
2021/07/10 09:44:14;;;;;;;2.22;1.80;;;22.80;71.70;;;;;;5114371;28;20086;-41
2021/07/10 09:46:42;;;;;;;2.05;1.83;;;22.80;71.70;;;;;;5112295;28;20036;-45
2021/07/10 09:49:29;;;;;;;2.13;1.92;;;22.80;71.60;;;;;;5114338;28;20070;-42
2021/07/10 09:52:28;;;;;;;1.83;1.63;;;22.80;71.60;;;;;;5093927;28;20050;-39
2021/07/10 09:55:01;;;;;;;1.83;1.63;;;22.80;71.60;;;;;;5010942;28;20046;-46
2021/07/10 09:57:31;;;;;;;1.90;1.80;;;22.80;71.70;;;;;;5013144;28;20124;-43
2021/07/10 10:00:03;;;;;;;2.13;1.92;;;22.80;71.70;;;;;;5011712;28;20053;-42
2021/07/10 10:02:31;;;;;;;2.15;1.83;;;22.80;71.70;;;;;;5011132;28;20468;-44
2021/07/10 10:05:10;;;;;;;2.10;1.90;;;22.80;71.70;;;;;;5011253;28;20072;-43
2021/07/10 10:07:43;;;;;;;2.13;1.77;;;22.90;71.70;;;;;;5011834;28;20049;-39
2021/07/10 10:10:15;;;;;;;1.92;1.80;;;22.90;71.70;;;;;;5011714;28;20057;-40
2021/07/10 10:12:41;;;;;;;1.85;1.73;;;22.90;71.70;;;;;;4993550;28;20072;-41
2021/07/10 10:15:09;;;;;;;2.30;2.05;;;22.90;71.60;;;;;;5021820;28;20046;-42
2021/07/10 10:17:35;;;;;;;2.40;1.85;;;22.90;71.60;;;;;;5010208;28;20085;-40
2021/07/10 10:20:03;;;;;;;1.50;1.40;;;22.90;71.60;;;;;;5011607;28;20049;-44
2021/07/10 10:22:29;;;;;;;4.70;2.10;;;22.90;71.60;;;;;;5010629;28;20057;-43
2021/07/10 10:24:55;;;;;;;2.10;1.90;;;22.90;71.60;;;;;;5008744;28;20073;-43
2021/07/10 10:27:21;;;;;;;1.60;1.50;;;22.90;71.60;;;;;;5009992;28;20053;-39
2021/07/10 10:29:52;;;;;;;1.80;1.70;;;22.90;71.60;;;;;;5011212;28;20052;-40
2021/07/10 10:32:18;;;;;;;2.03;1.70;;;22.90;71.60;;;;;;5092199;28;20052;-43
2021/07/10 10:34:43;;;;;;;2.40;1.73;;;22.90;71.50;;;;;;5091817;28;20059;-44
2021/07/10 10:37:10;;;;;;;1.70;1.60;;;22.90;71.60;;;;;;5092427;28;20047;-44
2021/07/10 10:39:37;;;;;;;1.63;1.52;;;23.00;71.60;;;;;;5091346;28;20134;-37
2021/07/10 10:42:24;;;;;;;1.58;1.45;;;22.90;71.50;;;;;;5093651;28;20040;-42
2021/07/10 10:44:56;;;;;;;1.70;1.60;;;23.00;71.50;;;;;;5091952;28;20048;-47
2021/07/10 10:47:23;;;;;;;2.10;1.73;;;23.00;71.50;;;;;;5092515;28;20051;-42
2021/07/10 10:49:50;;;;;;;2.15;1.80;;;23.00;71.50;;;;;;5092822;28;20051;-38
2021/07/10 10:52:45;;;;;;;2.53;2.08;;;23.00;71.50;;;;;;5093152;28;20052;-40
2021/07/10 10:55:10;;;;;;;1.77;1.63;;;23.00;71.40;;;;;;5091989;28;20075;-41
2021/07/10 10:57:52;;;;;;;2.10;1.80;;;23.00;71.50;;;;;;5092139;28;20044;-41
2021/07/10 11:00:24;;;;;;;1.77;1.50;;;23.00;71.40;;;;;;5092376;28;20055;-41
2021/07/10 11:02:50;;;;;;;1.85;1.65;;;23.00;71.50;;;;;;5094321;28;20052;-41
2021/07/10 11:05:32;;;;;;;2.70;1.67;;;23.10;71.50;;;;;;5092463;28;20401;-39
2021/07/10 11:08:24;;;;;;;1.73;1.63;;;23.00;71.40;;;;;;5092425;28;20127;-41
2021/07/10 11:10:53;;;;;;;1.75;1.65;;;23.10;71.40;;;;;;5093112;28;20093;-41
2021/07/10 11:13:35;;;;;;;1.40;1.30;;;23.10;71.50;;;;;;5094285;28;20112;-42
2021/07/10 11:16:20;;;;;;;1.75;1.65;;;23.10;71.40;;;;;;5092691;28;20052;-38
2021/07/10 11:18:56;;;;;;;1.60;1.50;;;23.10;71.40;;;;;;5097005;28;20044;-40
2021/07/10 11:21:45;;;;;;;2.65;1.80;;;23.10;71.40;;;;;;5091857;28;20048;-40
2021/07/10 11:24:20;;;;;;;1.92;1.80;;;23.10;71.50;;;;;;5092918;28;20048;-44
2021/07/10 11:26:58;;;;;;;2.00;1.85;;;23.10;71.40;;;;;;5091954;28;20048;-37
2021/07/10 11:29:28;;;;;;;1.75;1.65;;;23.10;71.30;;;;;;5091871;28;20573;-41
2021/07/10 11:32:25;;;;;;;1.65;1.55;;;23.10;71.30;;;;;;5102397;28;20047;-40
2021/07/10 11:34:59;;;;;;;1.90;1.70;;;23.10;71.30;;;;;;5098091;28;20415;-39
2021/07/10 11:37:39;;;;;;;1.40;1.30;;;23.20;71.40;;;;;;5104175;28;20412;-42
2021/07/10 11:40:10;;;;;;;1.65;1.45;;;23.20;71.40;;;;;;5112713;28;20044;-41
2021/07/10 11:42:44;;;;;;;2.05;1.73;;;23.10;71.30;;;;;;5112637;28;20048;-45
2021/07/10 11:45:16;;;;;;;1.90;1.70;;;23.20;71.30;;;;;;5104305;28;20344;-46
2021/07/10 11:47:44;;;;;;;1.83;1.45;;;23.20;71.30;;;;;;5112163;28;20445;-42
2021/07/10 11:50:28;;;;;;;1.67;1.58;;;23.20;71.30;;;;;;5108985;28;20115;-39
2021/07/10 11:53:04;;;;;;;1.70;1.60;;;23.20;71.30;;;;;;5107086;28;20130;-41
2021/07/10 11:55:35;;;;;;;1.50;1.40;;;23.20;71.90;;;;;;5106738;28;20097;-42
2021/07/10 11:58:20;;;;;;;1.98;1.63;;;23.20;71.20;;;;;;5108436;28;20130;-48
2021/07/10 12:00:47;;;;;;;2.30;1.70;;;23.20;71.20;;;;;;5107657;28;20048;-39
2021/07/10 12:03:21;;;;;;;1.63;1.50;;;23.20;71.20;;;;;;5108821;28;20790;-37
2021/07/10 12:05:48;;;;;;;2.00;1.80;;;23.20;71.20;;;;;;5108853;28;20051;-34
2021/07/10 12:08:14;;;;;;;9.30;5.55;;;23.20;71.20;;;;;;5087961;28;20540;-44
2021/07/10 12:10:43;;;;;;;7.50;5.22;;;23.20;69.30;;;;;;5088217;28;20074;-39
2021/07/10 12:13:15;;;;;;;7.57;5.32;;;23.30;67.60;;;;;;5069794;28;20063;-41
2021/07/10 12:15:43;;;;;;;7.90;5.25;;;23.30;65.60;;;;;;5087615;28;20051;-40
2021/07/10 12:18:12;;;;;;;12.52;5.88;;;23.30;64.80;;;;;;5089251;28;20066;-44
2021/07/10 12:20:43;;;;;;;10.52;6.03;;;23.30;64.10;;;;;;5087498;28;20048;-37
2021/07/10 12:23:31;;;;;;;24.58;6.57;;;23.30;63.50;;;;;;5068698;28;20051;-45
2021/07/10 12:26:04;;;;;;;5.65;4.72;;;23.40;62.70;;;;;;5068492;28;20052;-44
2021/07/10 12:28:30;;;;;;;9.10;5.13;;;23.40;62.40;;;;;;5088247;28;20040;-47
2021/07/10 12:30:57;;;;;;;7.30;5.20;;;23.50;62.30;;;;;;5086548;28;20071;-50
2021/07/10 12:33:25;;;;;;;8.45;5.60;;;23.60;62.20;;;;;;5086587;28;20181;-44
2021/07/10 12:36:04;;;;;;;9.32;4.80;;;23.60;62.30;;;;;;5100930;28;20062;-41
2021/07/10 12:38:31;;;;;;;7.47;5.18;;;23.60;62.80;;;;;;5108021;28;20043;-43
2021/07/10 12:41:31;;;;;;;6.20;4.88;;;23.70;63.20;;;;;;5109180;28;20052;-39
2021/07/10 12:44:24;;;;;;;6.82;5.05;;;23.60;63.60;;;;;;5111512;28;20083;-46
2021/07/10 12:47:01;;;;;;;6.85;5.15;;;23.60;64.00;;;;;;5112143;28;20054;-39
2021/07/10 12:49:38;;;;;;;5.65;4.60;;;23.60;64.30;;;;;;5112169;28;20044;-39
2021/07/10 12:52:06;;;;;;;6.45;5.10;;;23.60;64.50;;;;;;5111744;28;20058;-41